createdAt,value
2019-01-09T00:00:58.252Z,3.03
2019-01-09T00:03:27.089Z,3.07
2019-01-09T00:05:56.009Z,2.73
2019-01-09T00:08:24.878Z,5.13
2019-01-09T00:10:53.732Z,3.37
2019-01-09T00:13:22.505Z,2.47
2019-01-09T00:15:51.424Z,3.93
2019-01-09T00:18:20.326Z,3.07
2019-01-09T00:20:49.168Z,2.40
2019-01-09T00:23:17.953Z,2.30
2019-01-09T00:25:46.932Z,2.37
2019-01-09T00:28:15.769Z,2.60
2019-01-09T00:30:44.551Z,2.57
2019-01-09T00:33:13.345Z,2.70
2019-01-09T00:35:42.152Z,2.70
2019-01-09T00:38:11.051Z,2.73
2019-01-09T00:40:39.856Z,2.13
2019-01-09T00:43:08.676Z,2.20
2019-01-09T00:45:37.418Z,2.23
2019-01-09T00:48:09.013Z,2.20
2019-01-09T00:53:59.705Z,2.90
2019-01-09T00:56:28.499Z,1.93
2019-01-09T00:58:58.030Z,2.10
2019-01-09T01:01:26.813Z,1.83
2019-01-09T01:04:14.743Z,1.90
2019-01-09T01:07:11.735Z,2.30
2019-01-09T01:10:02.369Z,1.80
2019-01-09T01:12:48.719Z,1.93
2019-01-09T01:15:54.818Z,2.20
2019-01-09T01:18:51.703Z,2.07
2019-01-09T01:21:23.014Z,2.33
2019-01-09T01:24:18.858Z,3.50
2019-01-09T01:26:53.432Z,2.70
2019-01-09T01:29:44.149Z,2.47
2019-01-09T01:32:27.685Z,2.93
2019-01-09T01:35:01.370Z,2.10
2019-01-09T01:38:07.201Z,2.50
2019-01-09T01:41:09.072Z,2.80
2019-01-09T01:43:49.708Z,3.07
2019-01-09T01:50:05.927Z,3.00
2019-01-09T01:52:56.959Z,2.77
2019-01-09T01:55:56.919Z,2.67
2019-01-09T01:58:29.481Z,2.70
2019-01-09T02:01:17.868Z,2.20
2019-01-09T02:04:05.886Z,2.50
2019-01-09T02:06:53.752Z,2.13
2019-01-09T02:09:53.743Z,1.93
2019-01-09T02:12:26.015Z,2.20
2019-01-09T02:18:35.955Z,2.27
2019-01-09T02:24:44.135Z,2.43
2019-01-09T02:27:14.964Z,2.70
2019-01-09T02:29:56.161Z,2.27
2019-01-09T02:32:31.591Z,2.53
2019-01-09T02:35:00.409Z,2.63
2019-01-09T02:37:29.191Z,2.30
2019-01-09T02:39:57.991Z,2.83
2019-01-09T02:42:26.786Z,2.77
2019-01-09T02:44:55.613Z,2.93
2019-01-09T02:47:24.395Z,2.90
2019-01-09T02:49:53.531Z,2.87
2019-01-09T02:52:22.445Z,3.10
2019-01-09T02:54:51.247Z,3.00
2019-01-09T02:57:20.085Z,3.40
2019-01-09T02:59:48.962Z,3.03
2019-01-09T03:02:17.713Z,2.40
2019-01-09T03:04:46.507Z,2.93
2019-01-09T03:07:15.318Z,2.57
2019-01-09T03:09:44.147Z,2.80
2019-01-09T03:12:12.940Z,2.40
2019-01-09T03:14:41.763Z,2.53
2019-01-09T03:17:10.522Z,2.27
2019-01-09T03:19:39.341Z,3.07
2019-01-09T03:22:08.126Z,2.50
2019-01-09T03:24:36.987Z,2.80
2019-01-09T03:27:05.772Z,2.70
2019-01-09T03:29:34.650Z,2.90
2019-01-09T03:32:03.504Z,2.27
2019-01-09T03:34:32.277Z,2.10
2019-01-09T03:37:01.114Z,2.60
2019-01-09T03:39:29.898Z,4.03
2019-01-09T03:41:58.738Z,2.77
2019-01-09T03:44:27.480Z,2.67
2019-01-09T03:46:56.347Z,2.20
2019-01-09T03:49:25.131Z,2.40
2019-01-09T03:51:53.935Z,2.40
2019-01-09T03:54:23.570Z,2.20
2019-01-09T03:56:52.383Z,2.50
2019-01-09T03:59:21.195Z,2.08
2019-01-09T04:01:50.020Z,2.43
2019-01-09T04:04:18.794Z,2.40
2019-01-09T04:06:50.054Z,2.17
2019-01-09T04:09:18.782Z,2.20
2019-01-09T04:11:47.631Z,2.40
2019-01-09T04:14:16.418Z,2.30
2019-01-09T04:16:45.247Z,2.30
2019-01-09T04:19:14.023Z,2.03
2019-01-09T04:21:42.823Z,2.20
2019-01-09T04:24:11.556Z,2.37
2019-01-09T04:26:40.362Z,2.20
2019-01-09T04:29:09.188Z,2.03
2019-01-09T04:31:38.643Z,2.43
2019-01-09T04:34:07.409Z,2.10
2019-01-09T04:36:36.239Z,2.20
2019-01-09T04:39:05.950Z,2.00
2019-01-09T04:41:34.752Z,2.87
2019-01-09T04:44:03.569Z,2.17
2019-01-09T04:46:32.395Z,2.13
2019-01-09T04:49:01.403Z,2.43
2019-01-09T04:51:30.183Z,2.57
2019-01-09T04:53:59.429Z,2.50
2019-01-09T04:56:28.337Z,1.90
2019-01-09T04:58:57.162Z,2.60
2019-01-09T05:01:25.926Z,2.40
2019-01-09T05:03:54.778Z,2.63
2019-01-09T05:06:23.550Z,2.40
2019-01-09T05:08:52.518Z,2.83
2019-01-09T05:11:21.364Z,3.07
2019-01-09T05:13:52.736Z,2.92
2019-01-09T05:16:21.524Z,3.43
2019-01-09T05:18:50.491Z,2.60
2019-01-09T05:21:19.339Z,3.30
2019-01-09T05:23:48.174Z,3.03
2019-01-09T05:26:16.954Z,3.03
2019-01-09T05:28:45.879Z,3.10
2019-01-09T05:31:14.645Z,3.50
2019-01-09T05:33:43.433Z,4.13
2019-01-09T05:36:12.161Z,3.80
2019-01-09T05:38:40.931Z,3.07
2019-01-09T05:41:09.768Z,3.47
2019-01-09T05:43:38.611Z,3.13
2019-01-09T05:46:07.480Z,2.90
2019-01-09T05:48:36.236Z,3.33
2019-01-09T05:51:05.054Z,3.80
2019-01-09T05:53:33.906Z,3.30
2019-01-09T05:56:02.770Z,3.70
2019-01-09T05:58:31.990Z,3.33
2019-01-09T06:01:00.858Z,3.67
2019-01-09T06:03:29.647Z,3.67
2019-01-09T06:05:58.456Z,3.87
2019-01-09T06:08:27.357Z,3.63
2019-01-09T06:10:56.683Z,3.37
2019-01-09T06:13:25.465Z,3.87
2019-01-09T06:15:54.274Z,3.53
2019-01-09T06:18:23.088Z,3.67
2019-01-09T06:20:51.874Z,3.50
2019-01-09T06:23:20.723Z,3.60
2019-01-09T06:25:49.638Z,3.30
2019-01-09T06:28:18.396Z,3.17
2019-01-09T06:30:47.184Z,3.63
2019-01-09T06:33:16.155Z,3.60
2019-01-09T06:35:44.946Z,3.30
2019-01-09T06:38:13.760Z,3.13
2019-01-09T06:40:42.721Z,3.40
2019-01-09T06:43:11.556Z,3.23
2019-01-09T06:45:40.483Z,3.63
2019-01-09T06:48:09.338Z,3.90
2019-01-09T06:50:38.107Z,4.17
2019-01-09T06:53:06.929Z,4.13
2019-01-09T06:55:35.737Z,3.57
2019-01-09T06:58:04.579Z,3.10
2019-01-09T07:00:33.351Z,3.50
2019-01-09T07:03:02.290Z,3.53
2019-01-09T07:05:31.091Z,3.33
2019-01-09T07:07:59.931Z,3.67
2019-01-09T07:10:28.685Z,4.00
2019-01-09T07:12:57.519Z,3.70
2019-01-09T07:15:26.743Z,3.47
2019-01-09T07:17:55.561Z,4.07
2019-01-09T07:20:24.403Z,4.57
2019-01-09T07:22:53.240Z,4.50
2019-01-09T07:25:22.101Z,3.27
2019-01-09T07:27:50.881Z,3.90
2019-01-09T07:30:19.739Z,3.97
2019-01-09T07:32:48.512Z,3.17
2019-01-09T07:35:17.349Z,3.27
2019-01-09T07:37:46.146Z,4.33
2019-01-09T07:40:14.959Z,3.23
2019-01-09T07:42:44.178Z,3.00
2019-01-09T07:45:12.985Z,3.37
2019-01-09T07:47:41.755Z,2.97
2019-01-09T07:50:10.551Z,3.17
2019-01-09T07:52:39.567Z,3.10
2019-01-09T07:55:08.404Z,2.87
2019-01-09T07:57:37.235Z,2.73
2019-01-09T08:00:07.006Z,2.83
2019-01-09T08:02:35.803Z,3.20
2019-01-09T08:05:04.618Z,2.53
2019-01-09T08:07:33.394Z,2.27
2019-01-09T08:10:02.145Z,3.00
2019-01-09T08:12:30.951Z,3.33
2019-01-09T08:15:00.569Z,2.47
2019-01-09T08:17:29.359Z,2.67
2019-01-09T08:19:58.189Z,2.40
2019-01-09T08:22:26.991Z,2.00
2019-01-09T08:24:55.840Z,2.20
2019-01-09T08:27:24.647Z,2.67
2019-01-09T08:29:53.468Z,2.00
2019-01-09T08:32:22.272Z,2.20
2019-01-09T08:34:51.184Z,2.30
2019-01-09T08:37:20.000Z,2.70
2019-01-09T08:39:48.780Z,2.17
2019-01-09T08:42:17.615Z,2.23
2019-01-09T08:44:46.455Z,1.93
2019-01-09T08:47:15.283Z,2.10
2019-01-09T08:49:44.315Z,2.07
2019-01-09T08:52:13.110Z,2.33
2019-01-09T08:54:41.922Z,2.50
2019-01-09T08:57:10.743Z,2.03
2019-01-09T08:59:39.497Z,2.20
2019-01-09T09:02:08.274Z,2.87
2019-01-09T09:04:37.028Z,2.23
2019-01-09T09:07:05.942Z,2.20
2019-01-09T09:09:35.258Z,2.43
2019-01-09T09:12:04.013Z,2.17
2019-01-09T09:14:32.842Z,2.23
2019-01-09T09:17:01.646Z,2.07
2019-01-09T09:19:30.459Z,2.30
2019-01-09T09:21:59.185Z,3.07
2019-01-09T09:24:28.163Z,2.30
2019-01-09T09:26:56.922Z,2.03
2019-01-09T09:29:25.698Z,2.13
2019-01-09T09:31:54.534Z,2.23
2019-01-09T09:34:23.330Z,2.40
2019-01-09T09:36:52.083Z,2.33
2019-01-09T09:39:20.871Z,2.53
2019-01-09T09:41:49.701Z,2.00
2019-01-09T09:44:18.487Z,1.90
2019-01-09T09:46:47.210Z,2.20
2019-01-09T09:49:17.044Z,1.97
2019-01-09T09:51:45.857Z,2.00
2019-01-09T09:54:14.649Z,2.30
2019-01-09T09:56:45.931Z,2.83
2019-01-09T09:59:14.691Z,2.17
2019-01-09T10:01:43.471Z,2.60
2019-01-09T10:04:14.310Z,1.83
2019-01-09T10:06:43.217Z,2.20
2019-01-09T10:09:12.211Z,1.93
2019-01-09T10:11:41.018Z,2.20
2019-01-09T10:14:09.863Z,2.50
2019-01-09T10:16:38.656Z,2.17
2019-01-09T10:19:07.928Z,2.17
2019-01-09T10:21:36.746Z,2.40
2019-01-09T10:24:05.538Z,2.40
2019-01-09T10:26:34.295Z,2.27
2019-01-09T10:29:03.373Z,1.90
2019-01-09T10:31:32.142Z,2.77
2019-01-09T10:34:00.908Z,2.20
2019-01-09T10:36:29.719Z,2.60
2019-01-09T10:38:58.467Z,2.40
2019-01-09T10:41:27.256Z,2.27
2019-01-09T10:43:56.012Z,2.40
2019-01-09T10:46:24.804Z,2.20
2019-01-09T10:48:53.599Z,1.80
2019-01-09T10:51:22.388Z,1.93
2019-01-09T10:53:51.165Z,2.27
2019-01-09T10:56:19.981Z,2.20
2019-01-09T10:58:48.748Z,2.07
2019-01-09T11:01:17.587Z,1.87
2019-01-09T11:03:46.377Z,1.97
2019-01-09T11:06:15.109Z,2.13
2019-01-09T11:08:47.012Z,2.40
2019-01-09T11:11:14.402Z,2.60
2019-01-09T11:13:43.396Z,2.70
2019-01-09T11:16:12.418Z,2.13
2019-01-09T11:18:41.202Z,2.10
2019-01-09T11:21:10.801Z,2.13
2019-01-09T11:23:39.574Z,2.17
2019-01-09T11:26:08.386Z,2.20
2019-01-09T11:28:37.190Z,2.20
2019-01-09T11:31:05.993Z,2.00
2019-01-09T11:33:34.833Z,2.37
2019-01-09T11:36:03.629Z,2.03
2019-01-09T11:38:32.385Z,2.40
2019-01-09T11:41:01.150Z,1.83
2019-01-09T11:43:29.930Z,2.00
2019-01-09T11:45:58.709Z,2.07
2019-01-09T11:48:27.482Z,2.40
2019-01-09T11:50:56.280Z,2.27
2019-01-09T11:53:25.143Z,2.00
2019-01-09T11:55:53.906Z,1.90
2019-01-09T11:58:22.735Z,1.80
2019-01-09T12:00:51.490Z,2.20
2019-01-09T12:03:20.258Z,2.07
2019-01-09T12:05:49.103Z,1.80
2019-01-09T12:08:17.910Z,1.90
2019-01-09T12:10:46.683Z,2.20
2019-01-09T12:13:15.535Z,2.17
2019-01-09T12:15:44.325Z,2.10
2019-01-09T12:18:13.358Z,2.37
2019-01-09T12:20:42.157Z,1.97
2019-01-09T12:23:10.911Z,2.17
2019-01-09T12:25:39.694Z,2.07
2019-01-09T12:28:08.503Z,2.30
2019-01-09T12:30:37.339Z,1.93
2019-01-09T12:33:06.229Z,1.70
2019-01-09T12:35:35.032Z,1.73
2019-01-09T12:38:03.798Z,1.50
2019-01-09T12:40:32.670Z,2.00
2019-01-09T12:43:01.442Z,1.90
2019-01-09T12:45:30.222Z,1.97
2019-01-09T12:47:59.090Z,1.93
2019-01-09T12:50:27.898Z,2.00
2019-01-09T12:52:56.636Z,2.33
2019-01-09T12:55:25.412Z,2.47
2019-01-09T12:57:54.216Z,2.23
2019-01-09T13:00:24.019Z,2.37
2019-01-09T13:02:52.843Z,2.13
2019-01-09T13:05:21.615Z,1.77
2019-01-09T13:07:50.422Z,1.93
2019-01-09T13:10:19.202Z,2.10
2019-01-09T13:12:47.984Z,1.80
2019-01-09T13:15:16.755Z,2.10
2019-01-09T13:17:45.582Z,2.07
2019-01-09T13:20:14.410Z,1.90
2019-01-09T13:22:43.215Z,2.10
2019-01-09T13:25:12.609Z,1.97
2019-01-09T13:27:41.463Z,2.07
2019-01-09T13:30:14.463Z,2.07
2019-01-09T13:32:43.315Z,1.80
2019-01-09T13:35:12.102Z,1.90
2019-01-09T13:37:41.041Z,1.80
2019-01-09T13:40:11.541Z,1.97
2019-01-09T13:42:40.360Z,1.73
2019-01-09T13:45:10.179Z,2.10
2019-01-09T13:47:39.072Z,2.00
2019-01-09T13:50:08.666Z,2.03
2019-01-09T13:52:37.511Z,1.87
2019-01-09T13:55:06.935Z,1.90
2019-01-09T13:57:35.782Z,2.03
2019-01-09T14:00:05.841Z,2.23
2019-01-09T14:02:34.622Z,1.97
2019-01-09T14:05:03.790Z,2.20
2019-01-09T14:07:32.679Z,1.80
2019-01-09T14:10:01.468Z,2.00
2019-01-09T14:12:30.265Z,1.80
2019-01-09T14:14:59.094Z,2.37
2019-01-09T14:17:27.872Z,2.30
2019-01-09T14:19:56.698Z,2.67
2019-01-09T14:22:32.961Z,1.90
2019-01-09T14:24:56.049Z,1.70
2019-01-09T14:27:24.799Z,2.40
2019-01-09T14:29:53.590Z,1.80
2019-01-09T14:32:22.451Z,2.30
2019-01-09T14:34:51.297Z,1.93
2019-01-09T14:37:20.714Z,2.27
2019-01-09T14:39:49.553Z,2.00
2019-01-09T14:42:18.555Z,2.00
2019-01-09T14:44:47.407Z,2.13
2019-01-09T14:47:16.342Z,2.10
2019-01-09T14:49:45.224Z,2.00
2019-01-09T14:52:14.142Z,1.90
2019-01-09T14:54:43.457Z,2.77
2019-01-09T14:57:12.337Z,2.00
2019-01-09T14:59:41.116Z,2.57
2019-01-09T15:02:09.922Z,1.90
2019-01-09T15:04:38.730Z,2.00
2019-01-09T15:07:07.547Z,2.20
2019-01-09T15:09:36.339Z,2.17
2019-01-09T15:12:05.142Z,1.97
2019-01-09T15:14:33.914Z,2.27
2019-01-09T15:17:02.728Z,1.93
2019-01-09T15:19:32.048Z,1.97
2019-01-09T15:22:00.908Z,1.77
2019-01-09T15:24:29.682Z,2.03
2019-01-09T15:26:58.502Z,2.50
2019-01-09T15:29:27.321Z,2.37
2019-01-09T15:31:56.237Z,2.13
2019-01-09T15:34:25.143Z,1.83
2019-01-09T15:36:54.037Z,2.23
2019-01-09T15:39:22.938Z,2.20
2019-01-09T15:41:51.728Z,2.00
2019-01-09T15:44:20.697Z,2.30
2019-01-09T15:46:49.505Z,2.50
2019-01-09T15:49:18.275Z,2.33
2019-01-09T15:51:47.070Z,1.80
2019-01-09T15:54:15.959Z,2.33
2019-01-09T15:56:44.803Z,1.80
2019-01-09T15:59:13.594Z,2.73
2019-01-09T16:01:42.396Z,2.00
2019-01-09T16:04:11.195Z,2.40
2019-01-09T16:06:39.955Z,1.73
2019-01-09T16:09:09.515Z,2.83
2019-01-09T16:11:38.380Z,2.17
2019-01-09T16:14:07.212Z,2.47
2019-01-09T16:16:36.037Z,1.90
2019-01-09T16:19:05.291Z,2.43
2019-01-09T16:21:34.071Z,2.17
2019-01-09T16:24:03.033Z,2.37
2019-01-09T16:26:31.945Z,2.40
2019-01-09T16:29:00.838Z,2.03
2019-01-09T16:31:31.183Z,2.23
2019-01-09T16:34:00.035Z,2.20
2019-01-09T16:36:31.718Z,2.00
2019-01-09T16:39:00.500Z,2.30
2019-01-09T16:41:29.384Z,2.10
2019-01-09T16:43:58.290Z,2.17
2019-01-09T16:46:27.053Z,2.23
2019-01-09T16:48:55.995Z,2.30
2019-01-09T16:51:24.797Z,2.57
2019-01-09T16:53:53.824Z,1.90
2019-01-09T16:56:22.720Z,2.07
2019-01-09T16:58:51.843Z,2.17
2019-01-09T17:01:20.753Z,2.40
2019-01-09T17:03:49.614Z,2.23
2019-01-09T17:06:18.554Z,1.97
2019-01-09T17:08:47.393Z,2.90
2019-01-09T17:11:16.623Z,2.37
2019-01-09T17:13:45.494Z,2.00
2019-01-09T17:16:14.398Z,2.20
2019-01-09T17:18:43.856Z,2.00
2019-01-09T17:21:12.943Z,2.33
2019-01-09T17:23:42.294Z,2.13
2019-01-09T17:26:11.200Z,2.07
2019-01-09T17:28:42.465Z,2.57
2019-01-09T17:31:11.494Z,1.83
2019-01-09T17:33:40.368Z,2.77
2019-01-09T17:36:09.451Z,1.80
2019-01-09T17:38:38.371Z,1.87
2019-01-09T17:41:07.492Z,2.20
2019-01-09T17:43:36.424Z,2.23
2019-01-09T17:46:05.298Z,1.90
2019-01-09T17:48:34.394Z,1.77
2019-01-09T17:51:03.181Z,1.80
2019-01-09T17:53:32.307Z,2.20
2019-01-09T17:56:01.367Z,2.23
2019-01-09T17:58:30.532Z,2.23
2019-01-09T18:00:59.351Z,1.87
2019-01-09T18:03:28.244Z,2.27
2019-01-09T18:05:57.087Z,2.03
2019-01-09T18:08:25.950Z,2.07
2019-01-09T18:10:55.213Z,2.37
2019-01-09T18:13:24.107Z,2.10
2019-01-09T18:15:52.997Z,2.03
2019-01-09T18:18:21.850Z,2.27
2019-01-09T18:20:50.776Z,2.00
2019-01-09T18:23:19.721Z,2.10
2019-01-09T18:25:48.642Z,2.15
2019-01-09T18:28:17.490Z,2.57
2019-01-09T18:31:08.482Z,2.27
2019-01-09T18:33:56.496Z,2.03
2019-01-09T18:36:47.579Z,2.27
2019-01-09T18:39:23.444Z,2.60
2019-01-09T18:42:11.362Z,2.70
2019-01-09T18:44:58.699Z,2.23
2019-01-09T18:47:52.939Z,2.20
2019-01-09T18:50:28.582Z,2.03
2019-01-09T18:53:00.127Z,2.10
2019-01-09T18:55:29.142Z,1.87
2019-01-09T18:57:57.947Z,1.93
2019-01-09T19:00:27.043Z,2.10
2019-01-09T19:02:55.926Z,1.67
2019-01-09T19:05:24.776Z,2.20
2019-01-09T19:07:53.731Z,2.07
2019-01-09T19:10:23.603Z,2.20
2019-01-09T19:12:52.543Z,2.10
2019-01-09T19:15:21.383Z,2.10
2019-01-09T19:17:50.283Z,2.17
2019-01-09T19:20:19.345Z,1.87
2019-01-09T19:22:48.261Z,1.97
2019-01-09T19:25:17.223Z,2.30
2019-01-09T19:27:46.143Z,2.43
2019-01-09T19:30:19.760Z,3.27
2019-01-09T19:32:48.787Z,2.60
2019-01-09T19:35:17.810Z,2.10
2019-01-09T19:37:46.731Z,2.20
2019-01-09T19:40:15.581Z,2.23
2019-01-09T19:42:44.520Z,2.07
2019-01-09T19:45:14.361Z,2.73
2019-01-09T19:47:43.255Z,3.00
2019-01-09T19:50:13.591Z,2.37
2019-01-09T19:52:42.487Z,2.50
2019-01-09T19:55:11.700Z,2.73
2019-01-09T19:57:40.802Z,2.50
2019-01-09T20:00:11.764Z,2.40
2019-01-09T20:02:40.649Z,2.20
2019-01-09T20:05:09.439Z,2.17
2019-01-09T20:07:38.376Z,2.43
2019-01-09T20:10:08.567Z,2.93
2019-01-09T20:12:37.540Z,2.40
2019-01-09T20:15:06.967Z,2.07
2019-01-09T20:17:35.910Z,2.43
2019-01-09T20:20:06.955Z,2.33
2019-01-09T20:22:35.784Z,2.50
2019-01-09T20:25:05.289Z,2.43
2019-01-09T20:27:34.173Z,2.80
2019-01-09T20:30:03.230Z,2.53
2019-01-09T20:32:32.465Z,2.27
2019-01-09T20:35:01.601Z,2.63
2019-01-09T20:37:30.615Z,2.40
2019-01-09T20:39:59.557Z,2.63
2019-01-09T20:42:28.563Z,2.80
2019-01-09T20:44:57.568Z,2.30
2019-01-09T20:47:26.526Z,3.03
2019-01-09T20:49:55.419Z,3.20
2019-01-09T20:52:24.322Z,2.30
2019-01-09T20:54:53.292Z,2.60
2019-01-09T20:57:22.351Z,3.03
2019-01-09T20:59:51.366Z,2.50
2019-01-09T21:02:20.408Z,3.03
2019-01-09T21:04:49.368Z,2.90
2019-01-09T21:07:18.378Z,2.67
2019-01-09T21:09:47.296Z,2.97
2019-01-09T21:12:16.218Z,2.70
2019-01-09T21:14:46.062Z,2.57
2019-01-09T21:17:15.105Z,2.90
2019-01-09T21:19:44.696Z,2.97
2019-01-09T21:22:15.025Z,2.57
2019-01-09T21:24:44.726Z,2.70
2019-01-09T21:27:13.512Z,2.70
2019-01-09T21:29:42.402Z,2.83
2019-01-09T21:32:11.323Z,2.70
2019-01-09T21:34:40.213Z,2.80
2019-01-09T21:37:09.276Z,2.77
2019-01-09T21:39:38.242Z,3.27
2019-01-09T21:42:07.237Z,2.73
2019-01-09T21:44:36.152Z,2.83
2019-01-09T21:47:05.013Z,3.20
2019-01-09T21:49:33.939Z,2.90
2019-01-09T21:52:02.782Z,2.83
2019-01-09T21:54:31.600Z,2.70
2019-01-09T21:57:00.521Z,2.80
2019-01-09T21:59:29.422Z,2.53
2019-01-09T22:01:58.800Z,2.70
2019-01-09T22:04:27.732Z,3.30
2019-01-09T22:06:56.613Z,3.03
2019-01-09T22:09:26.447Z,2.87
2019-01-09T22:12:02.400Z,2.60
2019-01-09T22:14:25.858Z,2.40
2019-01-09T22:16:54.760Z,3.00
2019-01-09T22:19:23.751Z,2.70
2019-01-09T22:21:52.571Z,3.00
2019-01-09T22:24:21.411Z,2.40
2019-01-09T22:26:50.198Z,2.20
2019-01-09T22:29:19.011Z,2.33
2019-01-09T22:31:48.665Z,2.50
2019-01-09T22:34:17.546Z,2.87
2019-01-09T22:36:46.356Z,2.97
2019-01-09T22:39:15.465Z,2.60
2019-01-09T22:41:44.291Z,2.17
2019-01-09T22:44:13.079Z,2.47
2019-01-09T22:46:41.869Z,2.50
2019-01-09T22:49:10.662Z,2.63
2019-01-09T22:51:39.475Z,2.80
2019-01-09T22:54:08.266Z,2.80
2019-01-09T22:56:37.055Z,3.03
2019-01-09T22:59:05.845Z,2.50
2019-01-09T23:01:34.834Z,2.63
2019-01-09T23:04:03.749Z,3.00
2019-01-09T23:06:32.578Z,2.80
2019-01-09T23:09:01.448Z,2.50
2019-01-09T23:11:30.339Z,2.37
2019-01-09T23:13:59.302Z,2.20
2019-01-09T23:16:28.194Z,2.33
2019-01-09T23:18:57.222Z,2.57
2019-01-09T23:21:25.968Z,2.70
2019-01-09T23:23:54.753Z,2.73
2019-01-09T23:26:23.547Z,2.50
2019-01-09T23:28:52.687Z,2.47
2019-01-09T23:31:21.448Z,2.73
2019-01-09T23:33:50.286Z,2.43
2019-01-09T23:36:19.111Z,2.93
2019-01-09T23:38:47.950Z,2.20
2019-01-09T23:41:16.771Z,2.10
2019-01-09T23:43:45.598Z,2.80
2019-01-09T23:46:14.366Z,3.10
2019-01-09T23:48:43.279Z,1.93
2019-01-09T23:51:12.168Z,2.30
2019-01-09T23:53:41.041Z,2.53
2019-01-09T23:56:09.863Z,2.77
2019-01-09T23:58:38.656Z,2.37
